Time;durP1;ratioP1;P1;durP2;ratioP2;P2;SDS_P1;SDS_P2;PMS_P1;PMS_P2;Temp;Humidity;BMP_temperature;BMP_pressure;BME280_temperature;BME280_humidity;BME280_pressure;Samples;Min_cycle;Max_cycle;Signal;HPM_P1;HPM_P2
2023/03/13 00:00:09;;;;;;;22.92;4.43;;;;;;;-148.88;100.00;75322.25;5025682;28;20025;-78
2023/03/13 00:02:34;;;;;;;17.88;3.75;;;;;;;-148.88;100.00;75314.13;5026079;28;20021;-78
2023/03/13 00:04:59;;;;;;;21.52;3.55;;;;;;;-148.88;100.00;75301.94;5039755;28;20586;-80
2023/03/13 00:07:25;;;;;;;17.33;3.28;;;;;;;-148.88;100.00;75297.88;5020567;28;20109;-79
2023/03/13 00:09:50;;;;;;;12.95;2.53;;;;;;;-148.88;100.00;75285.69;5037882;28;20029;-78
2023/03/13 00:12:16;;;;;;;15.00;3.08;;;;;;;-148.88;100.00;75285.69;5020116;28;20041;-79
2023/03/13 00:14:42;;;;;;;13.40;3.15;;;;;;;-148.88;100.00;75277.59;5019806;28;20022;-79
2023/03/13 00:17:07;;;;;;;13.32;2.90;;;;;;;-148.88;100.00;75265.41;5019464;28;20036;-79
2023/03/13 00:19:32;;;;;;;26.65;4.95;;;;;;;-148.88;100.00;75277.59;5036912;28;20027;-79
2023/03/13 00:21:57;;;;;;;25.65;6.10;;;;;;;-148.88;100.00;75267.44;5037004;28;20078;-79
2023/03/13 00:24:23;;;;;;;17.63;3.33;;;;;;;-148.88;100.00;75257.28;5037400;28;20499;-80
2023/03/13 00:26:48;;;;;;;11.65;2.95;;;;;;;-148.88;100.00;75245.09;5036815;28;20026;-79
2023/03/13 00:29:13;;;;;;;15.30;2.90;;;;;;;-148.88;100.00;75265.41;5037167;28;20030;-78
2023/03/13 00:31:39;;;;;;;16.42;3.05;;;;;;;-148.88;100.00;75261.34;5033890;28;20116;-78
2023/03/13 00:34:04;;;;;;;9.02;2.72;;;;;;;-148.88;100.00;75253.22;5036343;28;20033;-79
2023/03/13 00:36:32;;;;;;;11.85;2.53;;;;;;;-148.88;100.00;75263.38;5037798;28;20080;-80
2023/03/13 00:38:58;;;;;;;16.30;2.88;;;;;;;-148.88;100.00;75255.25;5019671;28;20113;-80
2023/03/13 00:41:28;;;;;;;21.80;5.72;;;;;;;-148.88;100.00;75257.28;5037466;28;20061;-80
2023/03/13 00:43:54;;;;;;;14.00;3.17;;;;;;;-148.88;100.00;75253.22;5036436;28;20028;-78
2023/03/13 00:46:21;;;;;;;10.13;2.25;;;;;;;-148.88;100.00;75251.19;5036242;28;20025;-78
2023/03/13 00:48:47;;;;;;;17.63;2.83;;;;;;;-148.88;100.00;75251.19;5036026;28;20151;-78
2023/03/13 00:51:15;;;;;;;18.60;5.25;;;;;;;-148.88;100.00;75241.03;5036238;28;20075;-78
2023/03/13 00:53:40;;;;;;;18.90;3.42;;;;;;;-148.88;100.00;75249.16;5017935;28;20032;-79
2023/03/13 00:56:08;;;;;;;19.80;2.85;;;;;;;-148.88;100.00;75236.97;5036888;28;20021;-78
2023/03/13 00:58:36;;;;;;;11.48;2.72;;;;;;;-148.88;100.00;75224.78;5035832;28;20480;-79
2023/03/13 01:01:07;;;;;;;12.48;2.72;;;;;;;-148.88;100.00;75228.84;5018416;28;20030;-80
2023/03/13 01:03:33;;;;;;;18.55;3.08;;;;;;;-148.88;99.86;75224.78;5019905;28;20025;-79
2023/03/13 01:06:01;;;;;;;17.70;2.78;;;;;;;-148.88;100.00;75220.72;5021928;28;20116;-78
2023/03/13 01:08:27;;;;;;;17.38;2.80;;;;;;;-148.88;100.00;75232.91;5019726;28;20120;-79
2023/03/13 01:11:04;;;;;;;21.15;3.10;;;;;;;-148.88;100.00;75222.75;5038011;28;20434;-78
2023/03/13 01:13:33;;;;;;;25.30;4.85;;;;;;;-148.88;99.71;75216.66;5020691;28;20060;-78
2023/03/13 01:16:19;;;;;;;12.48;2.58;;;;;;;-148.88;100.00;75218.69;5021062;28;20053;-79
2023/03/13 01:18:48;;;;;;;13.43;2.72;;;;;;;-148.88;100.00;75208.53;5038739;28;20029;-78
2023/03/13 01:21:15;;;;;;;15.10;3.28;;;;;;;-148.88;100.00;75212.59;5038964;28;20037;-78
2023/03/13 01:23:40;;;;;;;11.88;2.30;;;;;;;-148.88;100.00;75224.78;5039137;28;20076;-78
2023/03/13 01:26:07;;;;;;;10.80;2.78;;;;;;;-148.88;100.00;75228.84;5039778;28;20056;-78
2023/03/13 01:28:33;;;;;;;17.90;3.40;;;;;;;-148.88;100.00;75241.03;5102212;22;20049;-79
2023/03/13 01:31:00;;;;;;;18.02;3.15;;;;;;;-148.88;100.00;75241.03;5038085;28;20043;-80
2023/03/13 01:33:25;;;;;;;12.50;2.45;;;;;;;-148.88;100.00;75230.88;5037853;28;20032;-80
2023/03/13 01:35:51;;;;;;;19.75;2.67;;;;;;;-148.88;100.00;75241.03;5038282;28;20100;-79
2023/03/13 01:38:16;;;;;;;13.98;2.67;;;;;;;-148.88;100.00;75243.06;5019694;28;20470;-79
2023/03/13 01:40:45;;;;;;;15.02;3.33;;;;;;;-148.88;100.00;75247.13;5037355;23;20072;-85
2023/03/13 01:43:28;;;;;;;10.25;2.67;;;;;;;-148.88;100.00;75243.06;5031334;28;20026;-85
2023/03/13 01:46:03;;;;;;;15.20;2.95;;;;;;;-148.88;100.00;75253.22;5016579;28;20031;-86
2023/03/13 01:48:30;;;;;;;15.88;2.88;;;;;;;-148.88;100.00;75251.19;5016470;28;20032;-86
2023/03/13 01:51:00;;;;;;;26.27;3.95;;;;;;;-148.88;100.00;75251.19;5016075;28;20026;-86
2023/03/13 01:53:27;;;;;;;10.30;2.67;;;;;;;-148.88;100.00;75241.03;5016138;28;20026;-84
2023/03/13 01:55:53;;;;;;;13.88;3.15;;;;;;;-148.88;100.00;75241.03;5016267;28;20171;-82
2023/03/13 01:58:19;;;;;;;14.88;2.78;;;;;;;-148.88;100.00;75232.91;5015711;28;20080;-84
2023/03/13 02:00:45;;;;;;;12.25;2.65;;;;;;;-148.88;100.00;75232.91;5014912;28;20022;-86
2023/03/13 02:03:16;;;;;;;29.58;4.60;;;;;;;-148.88;100.00;75228.84;5016027;28;20025;-86
2023/03/13 02:05:43;;;;;;;17.42;3.42;;;;;;;-148.88;100.00;75232.91;5015924;28;20109;-84
2023/03/13 02:08:17;;;;;;;26.38;6.00;;;;;;;-148.88;100.00;75222.75;5015008;28;20022;-84
2023/03/13 02:10:50;;;;;;;12.65;3.00;;;;;;;-148.88;100.00;75216.66;5014392;28;20022;-85
2023/03/13 02:13:16;;;;;;;17.75;4.20;;;;;;;-148.88;100.00;75214.63;5015582;28;20025;-85
2023/03/13 02:15:42;;;;;;;20.42;3.20;;;;;;;-148.88;100.00;75212.59;5015457;28;20022;-84
2023/03/13 02:18:07;;;;;;;21.95;3.85;;;;;;;-148.88;100.00;75208.53;5015553;28;20549;-84
2023/03/13 02:20:33;;;;;;;14.98;3.40;;;;;;;-148.88;100.00;75200.41;5014346;28;20490;-85
2023/03/13 02:23:18;;;;;;;11.05;2.72;;;;;;;-148.88;100.00;75212.59;5015410;28;20435;-87
2023/03/13 02:25:47;;;;;;;15.80;4.45;;;;;;;-148.88;100.00;75210.56;5015404;28;20022;-86
2023/03/13 02:28:18;;;;;;;17.88;2.83;;;;;;;-148.88;100.00;75212.59;5015307;28;20022;-87
2023/03/13 02:30:44;;;;;;;18.63;3.28;;;;;;;-148.88;100.00;75208.53;5015152;28;20076;-86
2023/03/13 02:33:18;;;;;;;19.23;2.92;;;;;;;-148.88;100.00;75200.41;5015298;28;20030;-86
2023/03/13 02:35:43;;;;;;;;;;;;;;;-148.88;100.00;75192.28;5015594;28;20444;-85
2023/03/13 02:38:11;;;;;;;17.70;3.00;;;;;;;-148.88;100.00;75184.16;5014964;28;19917;-87
2023/03/13 02:40:40;;;;;;;8.65;2.47;;;;;;;-148.88;100.00;75174.00;5014887;28;20038;-87
2023/03/13 02:43:20;;;;;;;17.80;3.05;;;;;;;-148.88;100.00;75163.84;5014860;28;20030;-87
2023/03/13 02:46:14;;;;;;;17.02;2.97;;;;;;;-148.88;100.00;75151.66;5014957;28;20061;-86
2023/03/13 02:48:51;;;;;;;18.85;3.50;;;;;;;-148.88;100.00;75143.53;5015310;28;20018;-87
2023/03/13 02:51:35;;;;;;;19.40;3.88;;;;;;;-148.88;100.00;75127.28;5015043;28;20029;-86
2023/03/13 02:54:07;;;;;;;26.23;4.45;;;;;;;-148.88;100.00;75119.16;5015313;28;20050;-86
2023/03/13 02:56:35;;;;;;;24.17;4.55;;;;;;;-148.88;100.00;75109.00;5015034;28;20026;-88
2023/03/13 02:59:00;;;;;;;20.75;3.65;;;;;;;-148.88;100.00;75102.91;5014546;28;20021;-86
2023/03/13 03:01:25;;;;;;;13.93;3.22;;;;;;;-148.88;100.00;75090.72;5014549;28;20109;-86
2023/03/13 03:03:51;;;;;;;19.08;3.67;;;;;;;-148.88;100.00;75090.72;5014749;28;20022;-86
2023/03/13 03:06:16;;;;;;;21.08;3.15;;;;;;;-148.88;100.00;75086.69;5014453;28;20432;-86
2023/03/13 03:08:42;;;;;;;21.27;4.10;;;;;;;-148.88;100.00;75086.69;5014535;28;20022;-86
2023/03/13 03:11:08;;;;;;;20.45;3.00;;;;;;;-148.88;100.00;75086.69;5014410;28;20021;-86
2023/03/13 03:13:34;;;;;;;24.50;3.42;;;;;;;-148.88;100.00;75080.59;5014505;28;20370;-86
2023/03/13 03:16:05;;;;;;;15.35;3.30;;;;;;;-148.88;100.00;75082.63;5014323;28;20030;-84
2023/03/13 03:18:30;;;;;;;20.00;3.53;;;;;;;-148.88;100.00;75074.50;5014359;28;20030;-87
2023/03/13 03:20:55;;;;;;;15.68;3.50;;;;;;;-148.88;100.00;75074.50;5014810;28;20440;-86
2023/03/13 03:23:21;;;;;;;18.95;3.53;;;;;;;-148.88;100.00;75068.41;5015257;28;20101;-86
2023/03/13 03:25:46;;;;;;;18.45;4.63;;;;;;;-148.88;100.00;75072.47;5013950;28;20485;-87
2023/03/13 03:28:11;;;;;;;14.82;3.75;;;;;;;-148.88;100.00;75068.41;5014380;28;20121;-87
2023/03/13 03:30:36;;;;;;;14.38;3.22;;;;;;;-148.88;100.00;75082.63;5014434;28;20036;-87
2023/03/13 03:33:03;;;;;;;26.52;4.25;;;;;;;-148.88;100.00;75082.63;5014437;28;20435;-86
2023/03/13 03:35:28;;;;;;;15.35;3.33;;;;;;;-148.88;100.00;75074.50;5014157;28;20026;-86
2023/03/13 03:37:53;;;;;;;12.50;3.10;;;;;;;-148.88;100.00;75072.47;5013948;28;20026;-85
2023/03/13 03:40:20;;;;;;;20.95;4.25;;;;;;;-148.88;100.00;75062.31;5014456;28;20155;-86
2023/03/13 03:42:45;;;;;;;19.63;5.07;;;;;;;-148.88;100.00;75054.19;5013158;28;20022;-86
2023/03/13 03:45:10;;;;;;;18.52;3.85;;;;;;;-148.88;100.00;75050.13;5013984;28;20032;-86
2023/03/13 03:47:36;;;;;;;18.50;3.60;;;;;;;-148.88;100.00;75035.91;5013909;28;20384;-87
2023/03/13 03:50:02;;;;;;;16.80;4.03;;;;;;;-148.88;100.00;75029.81;5013870;28;20057;-86
2023/03/13 03:52:28;;;;;;;11.18;4.13;;;;;;;-148.88;100.00;75033.88;5012507;28;20025;-85
2023/03/13 03:54:53;;;;;;;24.17;6.43;;;;;;;-148.88;100.00;75025.75;5013738;28;20036;-86
2023/03/13 03:57:18;;;;;;;12.23;3.80;;;;;;;-148.88;100.00;75013.56;5013924;28;20481;-87
2023/03/13 03:59:43;;;;;;;20.23;5.07;;;;;;;-148.88;100.00;75025.75;5013654;28;20030;-86
2023/03/13 04:02:09;;;;;;;21.40;3.85;;;;;;;-148.88;100.00;75017.63;5013766;28;20485;-87
2023/03/13 04:04:34;;;;;;;18.27;4.35;;;;;;;-148.88;100.00;75017.63;5014201;28;20064;-87
2023/03/13 04:06:59;;;;;;;19.90;4.22;;;;;;;-148.88;100.00;74997.31;5013648;28;20041;-87
2023/03/13 04:09:25;;;;;;;17.40;3.67;;;;;;;-148.88;100.00;74993.25;5013693;28;20029;-86
2023/03/13 04:11:50;;;;;;;18.10;3.63;;;;;;;-148.88;100.00;75003.41;5013456;28;20095;-87
2023/03/13 04:14:15;;;;;;;13.07;3.30;;;;;;;-148.88;100.00;74989.19;5013454;28;20032;-86
2023/03/13 04:16:41;;;;;;;14.73;3.65;;;;;;;-148.88;100.00;74972.94;5013513;28;20121;-86
2023/03/13 04:19:06;;;;;;;18.17;3.70;;;;;;;-148.88;100.00;74970.91;5012220;28;20032;-86
2023/03/13 04:21:32;;;;;;;13.40;3.58;;;;;;;-148.88;100.00;74966.84;5013272;28;20480;-85
2023/03/13 04:23:57;;;;;;;26.02;6.85;;;;;;;-148.88;100.00;74958.72;5013470;28;20025;-86
2023/03/13 04:26:22;;;;;;;17.88;4.43;;;;;;;-148.88;100.00;74958.72;5013471;28;20048;-86
2023/03/13 04:28:48;;;;;;;12.98;3.47;;;;;;;-148.88;100.00;74952.63;5012254;28;20025;-86
2023/03/13 04:31:13;;;;;;;12.63;3.53;;;;;;;-148.88;100.00;74950.59;5013628;28;20546;-87
2023/03/13 04:33:38;;;;;;;15.98;3.58;;;;;;;-148.88;100.00;74940.47;5012990;28;20026;-87
2023/03/13 04:36:04;;;;;;;12.38;3.75;;;;;;;-148.88;100.00;74940.47;5013398;28;20033;-87
2023/03/13 04:38:29;;;;;;;11.65;3.50;;;;;;;-148.88;100.00;74942.47;5015597;28;20036;-88
2023/03/13 04:40:55;;;;;;;12.65;3.55;;;;;;;-148.88;100.00;74942.47;5017336;28;20030;-85
2023/03/13 04:43:20;;;;;;;10.32;2.97;;;;;;;-148.88;100.00;74934.38;5017120;28;20030;-86
2023/03/13 04:45:45;;;;;;;8.77;3.03;;;;;;;-148.88;100.00;74936.41;5015751;28;20022;-87
2023/03/13 04:48:11;;;;;;;15.85;3.63;;;;;;;-148.88;100.00;74928.28;5017277;28;20022;-86
2023/03/13 04:50:36;;;;;;;9.98;3.17;;;;;;;-148.88;100.00;74926.25;5015907;28;20408;-87
2023/03/13 04:53:01;;;;;;;10.43;3.28;;;;;;;-148.88;100.00;74920.16;5017267;28;20052;-86
2023/03/13 04:55:27;;;;;;;11.77;3.70;;;;;;;-148.88;100.00;74907.97;5017196;28;20022;-87
2023/03/13 04:57:55;;;;;;;12.18;3.65;;;;;;;-148.88;100.00;74903.91;5015429;28;20058;-87
2023/03/13 05:00:20;;;;;;;17.45;3.72;;;;;;;-148.88;100.00;74907.97;5016919;28;20033;-86
2023/03/13 05:02:46;;;;;;;16.17;4.25;;;;;;;-148.88;100.00;74887.66;5017051;28;20030;-87
2023/03/13 05:05:11;;;;;;;11.85;4.53;;;;;;;-148.88;100.00;74887.66;5017395;28;20128;-88
2023/03/13 05:07:37;;;;;;;12.73;4.07;;;;;;;-148.88;100.00;74883.59;5016076;28;20022;-86
2023/03/13 05:10:02;;;;;;;13.15;4.03;;;;;;;-148.88;100.00;74865.31;5015443;28;20546;-86
2023/03/13 05:12:27;;;;;;;12.32;3.60;;;;;;;-148.88;100.00;74859.22;5016937;28;20540;-87
2023/03/13 05:14:53;;;;;;;13.07;7.03;;;;;;;-148.88;100.00;74842.97;5017071;28;20030;-87
2023/03/13 05:17:18;;;;;;;9.50;4.93;;;;;;;-148.88;100.00;74834.84;5016694;28;20029;-87
2023/03/13 05:19:43;;;;;;;8.98;4.00;;;;;;;-148.88;100.00;74836.88;5015214;28;20028;-89
2023/03/13 05:22:09;;;;;;;10.65;4.72;;;;;;;-148.88;100.00;74828.75;5015486;28;20048;-88
2023/03/13 05:24:34;;;;;;;10.77;4.35;;;;;;;-148.88;100.00;74814.53;5016759;28;20503;-86
2023/03/13 05:26:59;;;;;;;14.38;7.57;;;;;;;-148.88;100.00;74818.59;5016726;28;20030;-86
2023/03/13 05:29:25;;;;;;;14.32;7.00;;;;;;;-148.88;100.00;74798.31;5016446;28;20392;-87
2023/03/13 05:31:51;;;;;;;7.53;3.03;;;;;;;-148.88;100.00;74786.13;5015205;28;20032;-87
2023/03/13 05:34:16;;;;;;;6.22;3.58;;;;;;;-148.88;100.00;74792.22;5015000;28;20026;-86
2023/03/13 05:36:44;;;;;;;10.68;3.42;;;;;;;-148.88;100.00;74778.00;5016699;28;20448;-87
2023/03/13 05:39:10;;;;;;;14.07;3.83;;;;;;;-148.88;100.00;74773.94;5014849;28;20033;-86
2023/03/13 05:41:35;;;;;;;11.88;6.13;;;;;;;-148.88;100.00;74775.97;5015091;28;20030;-85
2023/03/13 05:44:00;;;;;;;12.43;5.80;;;;;;;-148.88;100.00;74763.78;5016038;28;20022;-87
2023/03/13 05:46:26;;;;;;;7.93;3.53;;;;;;;-148.88;100.00;74751.59;5016175;28;20041;-86
2023/03/13 05:48:51;;;;;;;9.23;4.35;;;;;;;-148.88;100.00;74743.47;5016129;28;20113;-87
2023/03/13 05:51:17;;;;;;;10.32;5.22;;;;;;;-148.88;100.00;74737.38;5024500;28;20025;-86
2023/03/13 05:53:42;;;;;;;7.15;3.67;;;;;;;-148.88;100.00;74729.25;5014974;28;20025;-87
2023/03/13 05:56:11;;;;;;;11.07;4.25;;;;;;;-148.88;100.00;74733.31;5015043;28;20033;-86
2023/03/13 05:58:36;;;;;;;12.77;7.22;;;;;;;-148.88;100.00;74727.22;5015993;28;20388;-86
2023/03/13 06:01:09;;;;;;;13.32;6.28;;;;;;;-148.88;100.00;74708.94;5015781;28;20022;-86
2023/03/13 06:03:34;;;;;;;11.18;3.72;;;;;;;-148.88;100.00;74698.78;5015636;28;20026;-85
2023/03/13 06:05:59;;;;;;;11.20;3.78;;;;;;;-148.88;100.00;74688.66;5014763;28;20100;-85
2023/03/13 06:08:27;;;;;;;10.07;6.25;;;;;;;-148.88;100.00;74684.59;5016323;28;20029;-86
2023/03/13 06:10:53;;;;;;;11.85;6.70;;;;;;;-148.88;100.00;74682.56;5014772;28;20088;-85
2023/03/13 06:13:18;;;;;;;9.48;6.00;;;;;;;-148.88;100.00;74680.53;5015990;28;20026;-85
2023/03/13 06:15:51;;;;;;;12.77;3.88;;;;;;;-148.88;100.00;74680.53;5014731;28;20030;-86
2023/03/13 06:18:16;;;;;;;11.20;5.78;;;;;;;-148.88;100.00;74682.56;5016649;28;20033;-87
2023/03/13 06:20:41;;;;;;;8.95;3.33;;;;;;;-148.88;100.00;74670.38;5016991;28;20018;-87
2023/03/13 06:23:06;;;;;;;7.15;3.35;;;;;;;-148.88;100.00;74666.31;5016145;28;20491;-88
2023/03/13 06:25:34;;;;;;;7.65;3.78;;;;;;;-148.88;100.00;74656.16;5016059;28;20037;-88
2023/03/13 06:27:59;;;;;;;12.73;7.28;;;;;;;-148.88;100.00;74666.31;5015362;28;20057;-87
2023/03/13 06:30:24;;;;;;;10.98;7.40;;;;;;;-148.88;100.00;74658.19;5016995;28;20037;-87
2023/03/13 06:32:50;;;;;;;8.60;4.30;;;;;;;-148.88;100.00;74664.28;5016916;28;20507;-88
2023/03/13 06:35:15;;;;;;;9.82;5.20;;;;;;;-148.88;100.00;74666.31;5016499;28;20054;-87
2023/03/13 06:37:40;;;;;;;9.07;4.32;;;;;;;-148.88;100.00;74660.22;5016549;28;20018;-87
2023/03/13 06:40:06;;;;;;;12.00;9.10;;;;;;;-148.88;100.00;74658.19;5017082;28;20400;-87
2023/03/13 06:42:32;;;;;;;11.95;8.68;;;;;;;-148.88;100.00;74656.16;5016038;28;20037;-88
2023/03/13 06:44:57;;;;;;;11.23;5.47;;;;;;;-148.88;100.00;74660.22;5014774;28;20034;-87
2023/03/13 06:47:22;;;;;;;10.02;5.15;;;;;;;-148.88;100.00;74662.25;5017131;28;20133;-87
2023/03/13 06:49:49;;;;;;;12.75;8.80;;;;;;;-148.88;100.00;74662.25;5014413;28;20018;-87
2023/03/13 06:52:14;;;;;;;14.52;9.02;;;;;;;-148.88;100.00;74664.28;5015477;28;20022;-86
2023/03/13 06:54:39;;;;;;;12.75;9.48;;;;;;;-148.88;100.00;74668.34;5016042;28;20049;-85
2023/03/13 06:57:05;;;;;;;14.65;9.98;;;;;;;-148.88;100.00;74666.31;5014357;28;20038;-88
2023/03/13 06:59:30;;;;;;;15.07;10.95;;;;;;;-148.88;100.00;74674.44;5014735;28;20404;-87
2023/03/13 07:01:55;;;;;;;15.55;11.63;;;;;;;-148.88;100.00;74664.28;5013856;28;20049;-87
2023/03/13 07:04:24;;;;;;;13.70;7.18;;;;;;;-148.88;100.00;74660.22;5016232;28;20026;-87
2023/03/13 07:06:50;;;;;;;18.27;12.48;;;;;;;-148.88;100.00;74658.19;5016680;28;20026;-87
2023/03/13 07:09:18;;;;;;;19.67;13.73;;;;;;;-148.88;100.00;74656.16;5002270;28;20014;-88
2023/03/13 07:11:44;;;;;;;19.23;14.07;;;;;;;-148.88;100.00;74648.03;4995272;28;20057;-87
2023/03/13 07:14:09;;;;;;;19.45;13.85;;;;;;;-148.88;100.00;74641.94;4995840;28;20018;-88
2023/03/13 07:16:34;;;;;;;20.27;14.77;;;;;;;-148.88;100.00;74631.78;4996013;28;20389;-87
2023/03/13 07:19:00;;;;;;;17.92;13.00;;;;;;;-148.88;100.00;74633.81;4995066;28;20073;-88
2023/03/13 07:21:25;;;;;;;22.65;14.88;;;;;;;-148.88;100.00;74633.81;5012634;28;20057;-89
2023/03/13 07:23:52;;;;;;;21.88;8.95;;;;;;;-148.88;100.00;74633.81;5015261;28;20021;-88
2023/03/13 07:26:17;;;;;;;19.05;15.10;;;;;;;-148.88;100.00;74648.03;5028976;28;20025;-86
2023/03/13 07:28:43;;;;;;;19.17;8.40;;;;;;;-148.88;100.00;74629.75;4995383;28;20396;-87
2023/03/13 07:31:16;;;;;;;17.52;13.30;;;;;;;-148.88;100.00;74627.72;5013909;28;20030;-88
2023/03/13 07:33:42;;;;;;;;;;;;;;;-148.88;100.00;74631.78;5014250;28;20022;-87
2023/03/13 07:36:08;;;;;;;17.17;13.85;;;;;;;-148.88;100.00;74619.59;5015676;28;19960;-86
2023/03/13 07:38:34;;;;;;;16.95;8.65;;;;;;;-148.88;100.00;74631.78;5015150;28;20460;-87
2023/03/13 07:40:59;;;;;;;18.45;14.75;;;;;;;-148.88;100.00;74619.59;5014413;28;20040;-87
2023/03/13 07:43:25;;;;;;;17.73;14.32;;;;;;;-148.88;100.00;74609.44;5015037;28;20018;-87
2023/03/13 07:46:02;;;;;;;18.77;13.70;;;;;;;-148.88;100.00;74597.25;5030087;28;20384;-88
2023/03/13 07:48:33;;;;;;;16.33;13.27;;;;;;;-148.88;100.00;74607.41;5015663;28;20014;-87
2023/03/13 07:50:59;;;;;;;19.58;13.55;;;;;;;-148.88;100.00;74599.28;5015062;28;20037;-87
2023/03/13 07:53:25;;;;;;;13.85;11.57;;;;;;;-148.88;100.00;74583.06;5015068;28;20058;-87
2023/03/13 07:55:52;;;;;;;14.10;11.30;;;;;;;-148.88;100.00;74591.19;5015109;28;20038;-87
2023/03/13 07:58:18;;;;;;;13.02;6.15;;;;;;;-148.88;100.00;74576.97;5014827;28;20109;-86
2023/03/13 08:00:43;;;;;;;12.77;9.55;;;;;;;-148.88;100.00;74583.06;5014619;28;20045;-86
2023/03/13 08:03:09;;;;;;;13.23;9.15;;;;;;;-148.88;100.00;74574.94;5030370;28;20369;-88
2023/03/13 08:05:34;;;;;;;11.68;8.82;;;;;;;-148.88;100.00;74548.53;5015605;28;20466;-87
2023/03/13 08:07:59;;;;;;;10.30;7.93;;;;;;;-148.88;100.00;74554.63;5015147;28;20022;-86
2023/03/13 08:10:25;;;;;;;11.35;7.55;;;;;;;-148.88;100.00;74554.63;5014837;28;20021;-87
2023/03/13 08:12:50;;;;;;;12.07;7.00;;;;;;;-148.88;100.00;74548.53;5014507;28;20543;-87
2023/03/13 08:15:17;;;;;;;10.35;6.68;;;;;;;-148.88;100.00;74548.53;5015720;28;20022;-87
2023/03/13 08:17:43;;;;;;;10.25;6.20;;;;;;;-148.88;100.00;74534.31;5016725;28;20038;-87
2023/03/13 08:20:09;;;;;;;7.97;5.65;;;;;;;-148.88;100.00;74538.38;5016023;28;20153;-88
2023/03/13 08:22:35;;;;;;;10.32;5.78;;;;;;;-148.88;100.00;74534.31;5014758;28;20026;-86
2023/03/13 08:25:01;;;;;;;8.35;5.35;;;;;;;-148.88;100.00;74514.00;5015744;28;20030;-87
2023/03/13 08:27:28;;;;;;;7.55;4.90;;;;;;;-148.88;100.00;74509.94;5015345;28;20503;-88
2023/03/13 08:29:54;;;;;;;6.15;4.70;;;;;;;-148.88;100.00;74501.81;5014915;28;20076;-87
2023/03/13 08:32:20;;;;;;;6.07;4.80;;;;;;;-148.88;100.00;74501.81;5016224;28;20029;-87
2023/03/13 08:34:46;;;;;;;7.32;4.38;;;;;;;-148.88;100.00;74497.78;5016653;28;20105;-87
2023/03/13 08:37:14;;;;;;;8.95;4.72;;;;;;;-148.88;100.00;74473.41;5015658;28;20057;-88
2023/03/13 08:39:39;;;;;;;7.18;4.20;;;;;;;-148.88;100.00;74465.28;5015458;28;20080;-88
2023/03/13 08:42:07;;;;;;;6.28;4.10;;;;;;;-148.88;100.00;74475.44;5016291;28;20022;-88
2023/03/13 08:44:32;;;;;;;6.60;4.25;;;;;;;-148.88;100.00;74457.16;5016883;28;20044;-88
2023/03/13 08:46:58;;;;;;;7.20;3.70;;;;;;;-148.88;100.00;74444.97;5015353;28;20468;-87
2023/03/13 08:49:24;;;;;;;6.97;4.07;;;;;;;-148.88;100.00;74449.03;5015481;28;20052;-86
2023/03/13 08:51:49;;;;;;;9.73;4.45;;;;;;;-148.88;100.00;74453.09;5014681;28;20021;-87
2023/03/13 08:54:14;;;;;;;7.90;3.75;;;;;;;-148.88;100.00;74436.84;5015917;28;20105;-88
2023/03/13 08:56:42;;;;;;;7.53;3.65;;;;;;;-148.88;100.00;74428.72;5016910;28;20512;-87
2023/03/13 08:59:07;;;;;;;8.32;5.30;;;;;;;-148.88;100.00;74432.78;5017784;28;20026;-86
2023/03/13 09:01:35;;;;;;;11.25;6.32;;;;;;;-148.88;100.00;74424.66;5017770;28;20448;-87
2023/03/13 09:04:00;;;;;;;8.95;5.03;;;;;;;-148.88;100.00;74430.75;5016924;28;20101;-88
2023/03/13 09:06:26;;;;;;;9.25;4.78;;;;;;;-148.88;100.00;74424.66;5016091;28;20459;-86
2023/03/13 09:08:51;;;;;;;8.48;3.97;;;;;;;-148.88;100.00;74414.50;5015489;28;20105;-87
2023/03/13 09:11:19;;;;;;;7.95;4.68;;;;;;;-148.88;100.00;74424.66;5016929;28;20033;-88
2023/03/13 09:13:48;;;;;;;10.07;4.43;;;;;;;-148.88;100.00;74406.41;5016972;28;20052;-88
2023/03/13 09:16:17;;;;;;;10.30;4.53;;;;;;;-148.88;100.00;74402.34;5017727;28;20084;-87
2023/03/13 09:18:43;;;;;;;7.72;4.60;;;;;;;-148.88;100.00;74400.31;5017308;28;20117;-87
2023/03/13 09:21:11;;;;;;;6.95;3.83;;;;;;;-148.88;100.00;74384.06;5015456;28;20098;-87
2023/03/13 09:23:37;;;;;;;7.07;3.92;;;;;;;-148.88;100.00;74386.09;5016725;28;20109;-86
2023/03/13 09:26:03;;;;;;;8.93;4.43;;;;;;;-148.88;100.00;74394.22;5022826;28;20100;-88
2023/03/13 09:28:29;;;;;;;8.52;3.85;;;;;;;-148.88;100.00;74384.06;5038201;28;20049;-89
2023/03/13 09:30:54;;;;;;;7.45;4.22;;;;;;;-148.88;100.00;74386.09;5038117;28;20032;-87
2023/03/13 09:33:24;;;;;;;8.27;3.70;;;;;;;-148.88;100.00;74388.13;5022784;28;20045;-87
2023/03/13 09:35:49;;;;;;;8.45;4.13;;;;;;;-148.88;100.00;74404.38;5020934;28;20026;-85
2023/03/13 09:38:21;;;;;;;9.80;4.10;;;;;;;-148.88;100.00;74386.09;5020149;28;20026;-87
2023/03/13 09:40:49;;;;;;;7.63;3.67;;;;;;;-148.88;100.00;74396.25;5021296;28;20029;-88
2023/03/13 09:43:34;;;;;;;6.70;4.07;;;;;;;-148.88;100.00;74386.09;5020019;28;20121;-85
2023/03/13 09:46:04;;;;;;;8.07;3.90;;;;;;;-148.88;100.00;74382.03;5024356;28;20052;-87
2023/03/13 09:48:42;;;;;;;8.35;4.40;;;;;;;-148.88;100.00;74355.63;5022386;28;20047;-87
2023/03/13 09:51:17;;;;;;;7.38;4.43;;;;;;;-148.88;100.00;74349.53;5017967;28;20021;-87
2023/03/13 09:54:11;;;;;;;8.43;4.68;;;;;;;-148.88;100.00;74343.44;5017764;28;20471;-87
2023/03/13 09:56:43;;;;;;;7.97;4.60;;;;;;;-148.88;100.00;74331.25;5016375;28;20403;-87
2023/03/13 09:59:24;;;;;;;10.82;5.07;;;;;;;-148.88;100.00;74310.97;5017445;28;20026;-87
2023/03/13 10:01:53;;;;;;;10.27;4.88;;;;;;;-148.88;100.00;74298.78;5018084;28;20026;-86
2023/03/13 10:04:18;;;;;;;10.30;4.85;;;;;;;-148.88;100.00;74282.53;5021331;28;20041;-87
2023/03/13 10:06:46;;;;;;;8.87;4.50;;;;;;;-148.88;100.00;74260.19;5020199;28;20084;-87
2023/03/13 10:09:21;;;;;;;9.02;4.80;;;;;;;-148.88;100.00;74211.47;5020541;28;20260;-88
2023/03/13 10:11:59;;;;;;;7.05;4.57;;;;;;;-148.88;100.00;74176.94;5022749;28;20033;-90
2023/03/13 10:14:41;;;;;;;7.38;4.15;;;;;;;-148.88;100.00;74150.56;5022488;28;20387;-87
2023/03/13 10:17:25;;;;;;;7.13;3.80;;;;;;;-148.88;100.00;74136.34;5018854;28;20033;-87
2023/03/13 10:19:57;;;;;;;8.93;3.92;;;;;;;-148.88;100.00;74128.22;5023663;28;20036;-88
2023/03/13 10:22:25;;;;;;;6.18;3.47;;;;;;;-148.88;100.00;74122.13;5021774;28;20033;-88
2023/03/13 10:24:59;;;;;;;6.82;3.50;;;;;;;-148.88;100.00;74118.06;5022173;28;20504;-87
2023/03/13 10:27:25;;;;;;;7.10;3.67;;;;;;;-148.88;100.00;74116.03;5021487;28;20030;-86
2023/03/13 10:29:50;;;;;;;6.85;3.33;;;;;;;-148.88;100.00;74095.72;5015514;28;20018;-85
2023/03/13 10:32:17;;;;;;;8.27;3.50;;;;;;;-148.88;100.00;74085.59;5015570;28;20361;-88
2023/03/13 10:34:59;;;;;;;6.80;3.47;;;;;;;-148.88;100.00;74067.31;5020371;28;20476;-87
2023/03/13 10:37:28;;;;;;;5.68;3.17;;;;;;;-148.88;100.00;74032.78;5017942;28;20045;-88
2023/03/13 10:40:09;;;;;;;6.22;3.33;;;;;;;-148.88;98.93;74018.59;5022743;28;20070;-87
2023/03/13 10:42:41;;;;;;;8.13;3.30;;;;;;;-148.88;98.99;74030.75;5019347;28;20038;-88
2023/03/13 10:45:12;;;;;;;6.00;3.00;;;;;;;-148.88;100.00;74042.94;5021399;28;20033;-87
2023/03/13 10:47:38;;;;;;;7.07;3.33;;;;;;;-148.88;100.00;74063.25;5022300;28;20099;-88
2023/03/13 10:50:04;;;;;;;5.28;3.22;;;;;;;-148.88;100.00;74063.25;5035997;28;20022;-88
2023/03/13 10:52:42;;;;;;;6.45;2.80;;;;;;;-148.88;100.00;74061.22;5018912;28;20558;-88
2023/03/13 10:55:19;;;;;;;8.40;3.30;;;;;;;-148.88;100.00;74059.19;5019350;28;20026;-88
2023/03/13 10:57:57;;;;;;;4.70;2.88;;;;;;;-148.88;100.00;74028.72;5019932;28;20025;-87
2023/03/13 11:00:34;;;;;;;6.97;2.97;;;;;;;-148.88;98.60;73977.97;5018291;28;20039;-88
2023/03/13 11:03:01;;;;;;;7.70;3.00;;;;;;;-148.88;95.92;73921.13;5018068;28;20395;-88
2023/03/13 11:05:35;;;;;;;6.57;2.50;;;;;;;-148.88;95.62;73892.72;5017107;28;20085;-88